createdAt,value
2024-04-25T00:00:32.840Z,20.10
2024-04-25T00:04:48.743Z,19.90
2024-04-25T00:08:45.766Z,20.30
2024-04-25T00:12:42.749Z,21.10
2024-04-25T00:16:39.750Z,20.80
2024-04-25T00:20:37.754Z,19.80
2024-04-25T00:24:36.721Z,19.90
2024-04-25T00:28:35.709Z,19.30
2024-04-25T00:32:32.786Z,20.30
2024-04-25T00:36:29.712Z,19.20
2024-04-25T00:40:27.738Z,18.80
2024-04-25T00:44:25.789Z,20.70
2024-04-25T00:48:22.771Z,19.20
2024-04-25T00:52:22.676Z,21.20
2024-04-25T00:56:20.770Z,18.70
2024-04-25T01:00:17.641Z,19.10
2024-04-25T01:04:14.856Z,20.20
2024-04-25T01:08:11.719Z,20.30
2024-04-25T01:12:08.707Z,19.00
2024-04-25T01:16:08.717Z,19.80
2024-04-25T01:20:06.736Z,19.60
2024-04-25T01:24:07.684Z,19.50
2024-04-25T01:28:04.732Z,18.90
2024-04-25T01:32:01.704Z,17.80
2024-04-25T01:36:00.668Z,19.00
2024-04-25T01:39:57.613Z,19.80
2024-04-25T01:43:55.621Z,17.20
2024-04-25T01:47:53.710Z,17.90
2024-04-25T01:51:51.617Z,17.60
2024-04-25T01:55:49.594Z,17.10
2024-04-25T01:59:47.646Z,17.00
2024-04-25T02:03:45.656Z,16.80
2024-04-25T02:07:43.628Z,15.90
2024-04-25T02:11:41.740Z,16.80
2024-04-25T02:15:38.586Z,16.50
2024-04-25T02:19:36.602Z,15.20
2024-04-25T02:23:51.646Z,16.00
2024-04-25T02:27:48.584Z,15.40
2024-04-25T02:31:47.618Z,15.00
2024-04-25T02:35:44.633Z,14.20
2024-04-25T02:39:42.565Z,14.80
2024-04-25T02:43:40.552Z,16.00
2024-04-25T02:47:38.678Z,15.20
2024-04-25T02:51:36.548Z,15.60
2024-04-25T02:55:34.598Z,16.70
2024-04-25T02:59:31.580Z,17.20
2024-04-25T03:03:28.722Z,16.60
2024-04-25T03:07:25.579Z,17.70
2024-04-25T03:11:23.533Z,16.10
2024-04-25T03:15:20.515Z,16.60
2024-04-25T03:19:17.585Z,17.10
2024-04-25T03:23:14.571Z,16.20
2024-04-25T03:27:12.582Z,17.70
2024-04-25T03:31:09.475Z,17.30
2024-04-25T03:35:06.547Z,17.30
2024-04-25T03:39:04.526Z,18.20
2024-04-25T03:43:02.502Z,16.90
2024-04-25T03:46:59.614Z,17.20
2024-04-25T03:50:57.551Z,17.20
2024-04-25T03:54:55.464Z,18.00
2024-04-25T03:58:53.485Z,15.80
2024-04-25T04:02:52.539Z,19.50
2024-04-25T04:06:50.551Z,19.60
2024-04-25T04:10:49.517Z,19.50
2024-04-25T04:14:47.582Z,19.30
2024-04-25T04:18:45.480Z,17.00
2024-04-25T04:22:43.424Z,16.70
2024-04-25T04:26:40.523Z,15.90
2024-04-25T04:30:38.455Z,15.50
2024-04-25T04:34:35.433Z,18.40
2024-04-25T04:38:33.427Z,17.00
2024-04-25T04:42:31.408Z,16.20
2024-04-25T04:46:28.431Z,17.10
2024-04-25T04:50:26.667Z,16.20
2024-04-25T04:54:23.439Z,15.60
2024-04-25T04:58:20.498Z,16.10
2024-04-25T05:02:17.433Z,15.90
2024-04-25T05:06:14.411Z,14.60
2024-04-25T05:10:12.452Z,14.70
2024-04-25T05:14:10.374Z,14.80
2024-04-25T05:18:08.395Z,13.60
2024-04-25T05:22:06.399Z,13.30
2024-04-25T05:26:04.360Z,13.30
2024-04-25T05:30:01.413Z,11.90
2024-04-25T05:33:38.767Z,12.40
2024-04-25T05:37:02.254Z,12.60
2024-04-25T05:40:25.959Z,14.30
2024-04-25T05:43:49.573Z,15.10
2024-04-25T05:47:15.528Z,16.60
2024-04-25T05:50:39.323Z,19.00
2024-04-25T05:54:02.862Z,23.20
2024-04-25T05:57:26.374Z,26.50
2024-04-25T06:00:50.677Z,26.00
2024-04-25T06:04:14.196Z,28.00
2024-04-25T06:07:37.602Z,26.30
2024-04-25T06:11:01.492Z,27.40
2024-04-25T06:14:25.237Z,29.20
2024-04-25T06:17:48.971Z,30.90
2024-04-25T06:21:12.937Z,29.90
2024-04-25T06:24:36.543Z,26.10
2024-04-25T06:28:00.125Z,28.10
2024-04-25T06:31:25.165Z,23.80
2024-04-25T06:34:51.669Z,23.40
2024-04-25T06:38:16.343Z,19.70
2024-04-25T06:41:46.994Z,18.60
2024-04-25T06:45:18.116Z,17.00
2024-04-25T06:48:41.946Z,17.90
2024-04-25T06:52:06.025Z,16.70
2024-04-25T06:55:29.829Z,19.10
2024-04-25T06:58:53.583Z,18.20
2024-04-25T07:02:20.250Z,19.50
2024-04-25T07:05:44.138Z,20.70
2024-04-25T07:09:08.666Z,20.90
2024-04-25T07:12:33.571Z,22.50
2024-04-25T07:15:57.341Z,24.40
2024-04-25T07:19:20.844Z,22.60
2024-04-25T07:22:44.411Z,19.70
2024-04-25T07:26:08.553Z,22.70
2024-04-25T07:29:34.529Z,18.40
2024-04-25T07:32:59.900Z,15.10
2024-04-25T07:36:23.585Z,14.00
2024-04-25T07:39:47.224Z,16.50
2024-04-25T07:43:10.920Z,12.30
2024-04-25T07:46:35.096Z,11.50
2024-04-25T07:49:59.964Z,10.10
2024-04-25T07:53:25.996Z,9.90
2024-04-25T07:56:49.730Z,8.70
2024-04-25T08:00:13.422Z,8.60
2024-04-25T08:03:37.082Z,7.70
2024-04-25T08:07:00.893Z,9.50
2024-04-25T08:10:25.348Z,9.00
2024-04-25T08:13:49.024Z,11.90
2024-04-25T08:17:12.518Z,16.00
2024-04-25T08:20:36.050Z,17.00
2024-04-25T08:23:59.861Z,17.90
2024-04-25T08:27:23.586Z,17.30
2024-04-25T08:30:47.411Z,15.60
2024-04-25T08:34:12.536Z,12.00
2024-04-25T08:37:36.184Z,9.70
2024-04-25T08:40:59.826Z,7.90
2024-04-25T08:44:23.632Z,8.60
2024-04-25T08:47:48.700Z,8.40
2024-04-25T08:51:15.212Z,9.20
2024-04-25T08:54:40.206Z,7.30
2024-04-25T08:58:06.174Z,6.80
2024-04-25T09:01:32.186Z,7.00
2024-04-25T09:04:56.169Z,6.90
2024-04-25T09:08:19.911Z,8.50
2024-04-25T09:11:43.720Z,8.10
2024-04-25T09:15:07.792Z,8.00
2024-04-25T09:18:33.329Z,7.20
2024-04-25T09:25:20.554Z,7.30
2024-04-25T09:28:44.494Z,7.20
2024-04-25T09:32:10.731Z,7.00
2024-04-25T09:35:44.441Z,8.40
2024-04-25T09:39:07.890Z,10.50
2024-04-25T09:42:32.216Z,9.60
2024-04-25T09:46:01.323Z,8.70
2024-04-25T09:49:33.463Z,8.20
2024-04-25T09:53:07.752Z,8.30
2024-04-25T09:56:33.079Z,7.80
2024-04-25T10:00:08.181Z,7.60
2024-04-25T10:03:32.972Z,7.40
2024-04-25T10:06:56.720Z,7.60
2024-04-25T10:10:20.259Z,7.80
2024-04-25T10:13:51.748Z,7.60
2024-04-25T10:17:24.313Z,7.50
2024-04-25T10:20:48.405Z,7.40
2024-04-25T10:24:12.041Z,8.60
2024-04-25T10:27:36.485Z,7.50
2024-04-25T10:30:59.927Z,8.70
2024-04-25T10:34:23.727Z,8.20
2024-04-25T10:37:49.256Z,8.20
2024-04-25T10:41:13.265Z,7.90
2024-04-25T10:44:36.903Z,8.50
2024-04-25T10:48:01.615Z,7.90
2024-04-25T10:51:26.720Z,8.20
2024-04-25T10:54:50.403Z,7.30
2024-04-25T10:58:15.120Z,7.90
2024-04-25T11:01:38.862Z,8.20
2024-04-25T11:05:02.535Z,8.20
2024-04-25T11:08:28.526Z,7.60
2024-04-25T11:11:52.759Z,7.50
2024-04-25T11:15:20.114Z,7.30
2024-04-25T11:18:48.027Z,6.80
2024-04-25T11:22:16.342Z,7.10
2024-04-25T11:25:44.897Z,7.70
2024-04-25T11:29:11.838Z,7.00
2024-04-25T11:32:36.335Z,6.40
2024-04-25T11:36:00.028Z,6.50
2024-04-25T11:39:23.694Z,7.30
2024-04-25T11:42:47.856Z,6.10
2024-04-25T11:46:11.946Z,6.50
2024-04-25T11:49:35.616Z,6.60
2024-04-25T11:52:59.254Z,7.50
2024-04-25T11:56:22.924Z,7.00
2024-04-25T11:59:46.672Z,6.20
2024-04-25T12:03:10.470Z,6.90
2024-04-25T12:06:34.303Z,6.00
2024-04-25T12:09:58.624Z,7.20
2024-04-25T12:13:22.070Z,7.00
2024-04-25T12:16:45.572Z,6.90
2024-04-25T12:20:10.700Z,6.10
2024-04-25T12:23:35.526Z,6.60
2024-04-25T12:26:59.507Z,6.50
2024-04-25T12:30:22.978Z,6.80
2024-04-25T12:33:46.652Z,6.30
2024-04-25T12:37:10.973Z,6.60
2024-04-25T12:40:34.800Z,6.40
2024-04-25T12:43:58.484Z,7.00
2024-04-25T12:47:21.997Z,6.70
2024-04-25T12:50:45.681Z,7.30
2024-04-25T12:54:09.297Z,7.90
2024-04-25T12:57:34.042Z,6.40
2024-04-25T13:00:57.659Z,6.70
2024-04-25T13:04:21.583Z,5.80
2024-04-25T13:07:45.868Z,6.90
2024-04-25T13:11:09.613Z,6.90
2024-04-25T13:14:33.306Z,7.30
2024-04-25T13:17:56.947Z,6.50
2024-04-25T13:21:20.665Z,6.60
2024-04-25T13:24:44.433Z,7.10
2024-04-25T13:28:07.916Z,6.70
2024-04-25T13:31:33.099Z,6.10
2024-04-25T13:38:23.746Z,7.10
2024-04-25T13:42:06.851Z,6.90
2024-04-25T13:46:04.895Z,6.70
2024-04-25T13:50:03.020Z,6.10
2024-04-25T13:54:00.821Z,6.90
2024-04-25T13:57:58.910Z,6.70
2024-04-25T14:01:56.982Z,7.00
2024-04-25T14:05:55.017Z,6.70
2024-04-25T14:09:55.962Z,6.40
2024-04-25T14:13:52.814Z,6.10
2024-04-25T14:17:50.909Z,6.40
2024-04-25T14:21:48.785Z,6.70
2024-04-25T14:26:03.855Z,6.70
2024-04-25T14:30:00.887Z,7.50
2024-04-25T14:33:58.056Z,7.50
2024-04-25T14:37:54.882Z,7.40
2024-04-25T14:41:52.976Z,6.80
2024-04-25T14:45:49.777Z,6.70
2024-04-25T14:49:47.903Z,7.10
2024-04-25T14:53:45.849Z,8.30
2024-04-25T14:57:43.808Z,7.60
2024-04-25T15:01:40.817Z,7.50
2024-04-25T15:05:37.813Z,8.00
2024-04-25T15:09:35.829Z,7.80
2024-04-25T15:13:34.791Z,7.10
2024-04-25T15:17:12.490Z,7.90
2024-04-25T15:20:36.139Z,8.50
2024-04-25T15:24:01.587Z,8.60
2024-04-25T15:27:25.458Z,8.60
2024-04-25T15:30:48.915Z,9.00
2024-04-25T15:34:12.624Z,10.10
2024-04-25T15:37:36.442Z,9.80
2024-04-25T15:41:00.138Z,8.40
2024-04-25T15:44:23.975Z,8.90
2024-04-25T15:47:47.648Z,8.50
2024-04-25T15:51:11.696Z,9.30
2024-04-25T15:54:35.924Z,8.60
2024-04-25T15:58:00.663Z,10.30
2024-04-25T16:01:24.328Z,8.80
2024-04-25T16:04:51.088Z,8.10
2024-04-25T16:08:15.509Z,8.40
2024-04-25T16:11:39.271Z,8.90
2024-04-25T16:15:03.011Z,9.50
2024-04-25T16:18:27.369Z,10.80
2024-04-25T16:21:54.566Z,10.00
2024-04-25T16:25:19.299Z,9.50
2024-04-25T16:28:42.903Z,9.10
2024-04-25T16:32:06.695Z,8.40
2024-04-25T16:35:30.145Z,9.50
2024-04-25T16:38:53.664Z,8.90
2024-04-25T16:42:17.306Z,9.30
2024-04-25T16:45:43.010Z,9.20
2024-04-25T16:52:30.243Z,9.50
2024-04-25T16:55:53.773Z,10.30
2024-04-25T16:59:17.338Z,9.80
2024-04-25T17:02:41.174Z,9.70
2024-04-25T17:06:04.819Z,10.60
2024-04-25T17:09:29.026Z,10.50
2024-04-25T17:12:52.664Z,9.80
2024-04-25T17:16:16.297Z,10.50
2024-04-25T17:19:41.753Z,10.20
2024-04-25T17:23:06.010Z,9.80
2024-04-25T17:26:30.023Z,9.70
2024-04-25T17:29:53.840Z,11.10
2024-04-25T17:33:17.413Z,10.40
2024-04-25T17:36:41.039Z,10.80
2024-04-25T17:40:04.868Z,10.60
2024-04-25T17:43:29.551Z,10.40
2024-04-25T17:46:56.490Z,11.20
2024-04-25T17:50:19.990Z,12.00
2024-04-25T17:53:44.502Z,13.10
2024-04-25T17:57:08.108Z,13.50
2024-04-25T18:00:32.073Z,14.10
2024-04-25T18:03:55.654Z,18.00
2024-04-25T18:07:21.488Z,21.30
2024-04-25T18:10:45.039Z,27.20
2024-04-25T18:14:08.537Z,21.80
2024-04-25T18:17:32.244Z,28.40
2024-04-25T18:20:55.840Z,25.70
2024-04-25T18:24:22.102Z,27.70
2024-04-25T18:27:45.564Z,25.50
2024-04-25T18:31:09.228Z,29.60
2024-04-25T18:34:32.858Z,29.20
2024-04-25T18:37:56.302Z,30.10
2024-04-25T18:41:20.076Z,29.50
2024-04-25T18:44:43.611Z,28.00
2024-04-25T18:48:07.931Z,29.40
2024-04-25T18:51:31.469Z,29.90
2024-04-25T18:54:55.169Z,29.00
2024-04-25T18:58:18.693Z,27.40
2024-04-25T19:01:42.282Z,30.30
2024-04-25T19:05:06.286Z,26.40
2024-04-25T19:08:30.692Z,27.40
2024-04-25T19:11:54.294Z,27.60
2024-04-25T19:15:18.013Z,31.40
2024-04-25T19:18:41.673Z,31.60
2024-04-25T19:22:05.258Z,29.20
2024-04-25T19:25:29.833Z,26.30
2024-04-25T19:28:53.285Z,26.70
2024-04-25T19:32:16.870Z,28.30
2024-04-25T19:35:40.951Z,28.50
2024-04-25T19:39:04.593Z,28.40
2024-04-25T19:42:29.557Z,25.10
2024-04-25T19:45:53.681Z,27.30
2024-04-25T19:49:19.395Z,29.40
2024-04-25T19:52:45.904Z,29.60
2024-04-25T19:56:11.307Z,28.70
2024-04-25T19:59:40.322Z,26.80
2024-04-25T20:03:04.512Z,22.30
2024-04-25T20:06:28.526Z,21.10
2024-04-25T20:09:52.179Z,23.50
2024-04-25T20:13:15.686Z,22.50
2024-04-25T20:16:39.261Z,23.90
2024-04-25T20:20:20.431Z,26.70
2024-04-25T20:23:46.353Z,26.50
2024-04-25T20:27:10.344Z,25.10
2024-04-25T20:30:33.790Z,26.20
2024-04-25T20:33:57.624Z,25.10
2024-04-25T20:37:21.545Z,24.90
2024-04-25T20:40:45.083Z,25.70
2024-04-25T20:44:09.565Z,24.10
2024-04-25T20:47:33.148Z,24.00
2024-04-25T20:50:56.858Z,26.50
2024-04-25T20:54:20.433Z,26.00
2024-04-25T20:57:44.041Z,28.90
2024-04-25T21:01:07.655Z,27.10
2024-04-25T21:04:31.300Z,27.20
2024-04-25T21:07:54.915Z,30.20
2024-04-25T21:11:18.445Z,28.40
2024-04-25T21:14:44.063Z,30.20
2024-04-25T21:18:07.784Z,29.50
2024-04-25T21:21:31.375Z,28.30
2024-04-25T21:24:54.818Z,28.50
2024-04-25T21:28:19.236Z,28.40
2024-04-25T21:31:43.926Z,29.30
2024-04-25T21:35:08.312Z,27.90
2024-04-25T21:38:33.037Z,27.20
2024-04-25T21:41:57.164Z,29.30
2024-04-25T21:45:21.031Z,27.10
2024-04-25T21:48:49.022Z,30.00
2024-04-25T21:52:14.950Z,30.00
2024-04-25T21:55:38.704Z,29.50
2024-04-25T21:59:02.592Z,30.70
2024-04-25T22:04:38.155Z,32.10
2024-04-25T22:08:01.929Z,33.00
2024-04-25T22:11:25.638Z,31.60
2024-04-25T22:14:49.387Z,31.40
2024-04-25T22:18:13.432Z,32.60
2024-04-25T22:21:37.408Z,31.80
2024-04-25T22:25:01.237Z,31.70
2024-04-25T22:28:25.480Z,29.60
2024-04-25T22:31:49.121Z,28.90
2024-04-25T22:35:12.745Z,29.30
2024-04-25T22:38:37.080Z,29.10
2024-04-25T22:42:00.927Z,29.60
2024-04-25T22:45:31.828Z,29.40
2024-04-25T22:48:56.180Z,29.60
2024-04-25T22:52:20.164Z,29.30
2024-04-25T22:55:43.937Z,28.60
2024-04-25T22:59:07.474Z,28.80
2024-04-25T23:02:31.524Z,27.10
2024-04-25T23:05:55.279Z,27.40
2024-04-25T23:09:19.267Z,26.30
2024-04-25T23:12:42.732Z,26.80
2024-04-25T23:16:14.363Z,28.70
2024-04-25T23:19:37.988Z,25.70
2024-04-25T23:23:02.548Z,25.20
2024-04-25T23:26:26.233Z,28.10
2024-04-25T23:29:49.709Z,27.80
2024-04-25T23:33:13.584Z,29.30
2024-04-25T23:36:38.352Z,26.00
2024-04-25T23:40:03.758Z,26.90
2024-04-25T23:43:28.215Z,25.50
2024-04-25T23:46:51.924Z,25.20
2024-04-25T23:50:15.551Z,25.30
2024-04-25T23:53:39.693Z,26.70
2024-04-25T23:57:03.177Z,26.30
